sensor_id;sensor_type;location;lat;lon;timestamp;temperature;humidity
65470;DHT22;52067;50.710;14.492;2023-08-20T00:01:02;18.48;86.39
65470;DHT22;52067;50.710;14.492;2023-08-20T00:03:29;18.43;86.17
65470;DHT22;52067;50.710;14.492;2023-08-20T00:05:54;18.57;86.10
65470;DHT22;52067;50.710;14.492;2023-08-20T00:08:19;18.63;85.62
65470;DHT22;52067;50.710;14.492;2023-08-20T00:10:45;18.76;85.16
65470;DHT22;52067;50.710;14.492;2023-08-20T00:13:10;18.73;85.25
65470;DHT22;52067;50.710;14.492;2023-08-20T00:15:35;18.52;85.60
65470;DHT22;52067;50.710;14.492;2023-08-20T00:18:01;18.29;86.73
65470;DHT22;52067;50.710;14.492;2023-08-20T00:20:26;18.38;86.04
65470;DHT22;52067;50.710;14.492;2023-08-20T00:22:53;18.48;85.99
65470;DHT22;52067;50.710;14.492;2023-08-20T00:25:18;18.57;85.62
65470;DHT22;52067;50.710;14.492;2023-08-20T00:27:43;18.69;85.09
65470;DHT22;52067;50.710;14.492;2023-08-20T00:30:09;18.77;84.61
65470;DHT22;52067;50.710;14.492;2023-08-20T00:32:35;18.50;85.67
65470;DHT22;52067;50.710;14.492;2023-08-20T00:35:00;18.60;85.30
65470;DHT22;52067;50.710;14.492;2023-08-20T00:37:26;18.31;85.90
65470;DHT22;52067;50.710;14.492;2023-08-20T00:39:51;18.15;86.92
65470;DHT22;52067;50.710;14.492;2023-08-20T00:42:16;18.39;85.99
65470;DHT22;52067;50.710;14.492;2023-08-20T00:44:42;18.43;85.54
65470;DHT22;52067;50.710;14.492;2023-08-20T00:47:09;18.50;85.34
65470;DHT22;52067;50.710;14.492;2023-08-20T00:49:34;18.60;84.89
65470;DHT22;52067;50.710;14.492;2023-08-20T00:52:00;18.52;85.29
65470;DHT22;52067;50.710;14.492;2023-08-20T00:54:26;18.66;84.98
65470;DHT22;52067;50.710;14.492;2023-08-20T00:56:52;18.73;84.49
65470;DHT22;52067;50.710;14.492;2023-08-20T00:59:17;18.46;85.29
65470;DHT22;52067;50.710;14.492;2023-08-20T01:01:43;18.36;85.58
65470;DHT22;52067;50.710;14.492;2023-08-20T01:04:08;18.52;85.05
65470;DHT22;52067;50.710;14.492;2023-08-20T01:06:39;18.32;85.70
65470;DHT22;52067;50.710;14.492;2023-08-20T01:11:57;18.53;85.21
65470;DHT22;52067;50.710;14.492;2023-08-20T01:14:24;18.39;85.16
65470;DHT22;52067;50.710;14.492;2023-08-20T01:16:49;18.36;85.48
65470;DHT22;52067;50.710;14.492;2023-08-20T01:19:18;18.46;85.30
65470;DHT22;52067;50.710;14.492;2023-08-20T01:21:47;18.33;86.14
65470;DHT22;52067;50.710;14.492;2023-08-20T01:24:23;18.55;85.33
65470;DHT22;52067;50.710;14.492;2023-08-20T01:27:00;18.64;85.02
65470;DHT22;52067;50.710;14.492;2023-08-20T01:29:31;18.53;85.42
65470;DHT22;52067;50.710;14.492;2023-08-20T01:31:56;18.40;85.51
65470;DHT22;52067;50.710;14.492;2023-08-20T01:34:22;18.49;85.18
65470;DHT22;52067;50.710;14.492;2023-08-20T01:36:47;18.29;85.92
65470;DHT22;52067;50.710;14.492;2023-08-20T01:39:12;18.29;86.16
65470;DHT22;52067;50.710;14.492;2023-08-20T01:41:38;18.24;86.12
65470;DHT22;52067;50.710;14.492;2023-08-20T01:44:04;18.33;85.68
65470;DHT22;52067;50.710;14.492;2023-08-20T01:46:29;18.40;85.62
65470;DHT22;52067;50.710;14.492;2023-08-20T01:48:54;18.49;85.30
65470;DHT22;52067;50.710;14.492;2023-08-20T01:51:19;18.64;84.89
65470;DHT22;52067;50.710;14.492;2023-08-20T01:53:45;18.73;84.55
65470;DHT22;52067;50.710;14.492;2023-08-20T01:56:11;18.33;85.83
65470;DHT22;52067;50.710;14.492;2023-08-20T01:58:37;18.15;86.38
65470;DHT22;52067;50.710;14.492;2023-08-20T02:01:02;18.22;86.80
65470;DHT22;52067;50.710;14.492;2023-08-20T02:03:28;18.39;85.90
65470;DHT22;52067;50.710;14.492;2023-08-20T02:05:53;18.11;86.46
65470;DHT22;52067;50.710;14.492;2023-08-20T02:08:18;18.25;86.65
65470;DHT22;52067;50.710;14.492;2023-08-20T02:10:44;18.48;85.74
65470;DHT22;52067;50.710;14.492;2023-08-20T02:13:09;18.56;85.30
65470;DHT22;52067;50.710;14.492;2023-08-20T02:15:34;18.28;86.29
65470;DHT22;52067;50.710;14.492;2023-08-20T02:18:00;18.16;86.82
65470;DHT22;52067;50.710;14.492;2023-08-20T02:20:26;18.01;87.52
65470;DHT22;52067;50.710;14.492;2023-08-20T02:22:51;18.05;87.69
65470;DHT22;52067;50.710;14.492;2023-08-20T02:25:16;18.28;87.23
65470;DHT22;52067;50.710;14.492;2023-08-20T02:27:42;18.49;86.38
65470;DHT22;52067;50.710;14.492;2023-08-20T02:30:07;18.64;85.78
65470;DHT22;52067;50.710;14.492;2023-08-20T02:32:33;18.79;85.44
65470;DHT22;52067;50.710;14.492;2023-08-20T02:34:58;18.52;85.84
65470;DHT22;52067;50.710;14.492;2023-08-20T02:37:23;18.57;86.45
65470;DHT22;52067;50.710;14.492;2023-08-20T02:39:49;18.76;85.59
65470;DHT22;52067;50.710;14.492;2023-08-20T02:42:14;18.91;84.93
65470;DHT22;52067;50.710;14.492;2023-08-20T02:44:39;18.71;85.49
65470;DHT22;52067;50.710;14.492;2023-08-20T02:47:05;18.86;85.29
65470;DHT22;52067;50.710;14.492;2023-08-20T02:49:30;18.93;84.98
65470;DHT22;52067;50.710;14.492;2023-08-20T02:51:55;18.90;84.46
65470;DHT22;52067;50.710;14.492;2023-08-20T02:54:21;18.86;85.58
65470;DHT22;52067;50.710;14.492;2023-08-20T02:56:46;18.89;84.61
65470;DHT22;52067;50.710;14.492;2023-08-20T02:59:11;19.01;85.02
65470;DHT22;52067;50.710;14.492;2023-08-20T03:01:36;18.93;84.25
65470;DHT22;52067;50.710;14.492;2023-08-20T03:04:02;18.96;85.07
65470;DHT22;52067;50.710;14.492;2023-08-20T03:06:28;19.10;84.55
65470;DHT22;52067;50.710;14.492;2023-08-20T03:08:53;19.27;84.26
65470;DHT22;52067;50.710;14.492;2023-08-20T03:11:18;19.36;83.35
65470;DHT22;52067;50.710;14.492;2023-08-20T03:13:44;18.84;85.39
65470;DHT22;52067;50.710;14.492;2023-08-20T03:16:09;18.59;86.64
65470;DHT22;52067;50.710;14.492;2023-08-20T03:18:35;18.56;87.01
65470;DHT22;52067;50.710;14.492;2023-08-20T03:21:00;18.77;85.98
65470;DHT22;52067;50.710;14.492;2023-08-20T03:23:27;18.96;85.34
65470;DHT22;52067;50.710;14.492;2023-08-20T03:25:52;19.04;85.13
65470;DHT22;52067;50.710;14.492;2023-08-20T03:28:18;19.14;84.86
65470;DHT22;52067;50.710;14.492;2023-08-20T03:30:43;19.18;84.49
65470;DHT22;52067;50.710;14.492;2023-08-20T03:33:08;18.67;86.21
65470;DHT22;52067;50.710;14.492;2023-08-20T03:35:34;18.96;85.72
65470;DHT22;52067;50.710;14.492;2023-08-20T03:37:59;19.15;84.85
65470;DHT22;52067;50.710;14.492;2023-08-20T03:40:24;19.17;84.82
65470;DHT22;52067;50.710;14.492;2023-08-20T03:42:49;19.15;84.50
65470;DHT22;52067;50.710;14.492;2023-08-20T03:45:15;19.21;84.42
65470;DHT22;52067;50.710;14.492;2023-08-20T03:47:40;19.12;84.85
65470;DHT22;52067;50.710;14.492;2023-08-20T03:50:09;19.15;84.95
65470;DHT22;52067;50.710;14.492;2023-08-20T03:52:34;19.22;85.16
65470;DHT22;52067;50.710;14.492;2023-08-20T03:54:59;19.07;85.13
65470;DHT22;52067;50.710;14.492;2023-08-20T03:57:24;19.24;85.00
65470;DHT22;52067;50.710;14.492;2023-08-20T03:59:50;19.18;84.92
65470;DHT22;52067;50.710;14.492;2023-08-20T04:02:15;19.15;85.28
65470;DHT22;52067;50.710;14.492;2023-08-20T04:04:40;19.22;84.89
65470;DHT22;52067;50.710;14.492;2023-08-20T04:07:06;19.32;84.66
65470;DHT22;52067;50.710;14.492;2023-08-20T04:09:32;19.38;84.52
65470;DHT22;52067;50.710;14.492;2023-08-20T04:11:57;19.47;84.48
65470;DHT22;52067;50.710;14.492;2023-08-20T04:14:23;19.59;83.91
65470;DHT22;52067;50.710;14.492;2023-08-20T04:16:48;19.63;83.91
65470;DHT22;52067;50.710;14.492;2023-08-20T04:19:13;19.65;83.83
65470;DHT22;52067;50.710;14.492;2023-08-20T04:21:38;19.69;83.85
65470;DHT22;52067;50.710;14.492;2023-08-20T04:24:04;19.70;83.66
65470;DHT22;52067;50.710;14.492;2023-08-20T04:26:29;19.73;83.77
65470;DHT22;52067;50.710;14.492;2023-08-20T04:28:54;19.51;84.76
65470;DHT22;52067;50.710;14.492;2023-08-20T04:31:20;19.32;85.55
65470;DHT22;52067;50.710;14.492;2023-08-20T04:33:45;19.18;86.41
65470;DHT22;52067;50.710;14.492;2023-08-20T04:36:10;19.29;85.61
65470;DHT22;52067;50.710;14.492;2023-08-20T04:38:36;18.91;86.34
65470;DHT22;52067;50.710;14.492;2023-08-20T04:41:01;19.07;86.42
65470;DHT22;52067;50.710;14.492;2023-08-20T04:43:27;19.38;85.69
65470;DHT22;52067;50.710;14.492;2023-08-20T04:45:52;19.59;85.21
65470;DHT22;52067;50.710;14.492;2023-08-20T04:48:17;19.63;84.94
65470;DHT22;52067;50.710;14.492;2023-08-20T04:50:43;19.44;85.64
65470;DHT22;52067;50.710;14.492;2023-08-20T04:53:08;19.56;85.82
65470;DHT22;52067;50.710;14.492;2023-08-20T04:55:33;19.65;85.72
65470;DHT22;52067;50.710;14.492;2023-08-20T04:57:59;19.59;86.13
65470;DHT22;52067;50.710;14.492;2023-08-20T05:00:24;19.76;85.14
65470;DHT22;52067;50.710;14.492;2023-08-20T05:02:50;19.92;85.03
65470;DHT22;52067;50.710;14.492;2023-08-20T05:05:15;19.97;84.67
65470;DHT22;52067;50.710;14.492;2023-08-20T05:07:40;19.93;84.52
65470;DHT22;52067;50.710;14.492;2023-08-20T05:10:06;19.89;85.70
65470;DHT22;52067;50.710;14.492;2023-08-20T05:12:32;19.82;85.38
65470;DHT22;52067;50.710;14.492;2023-08-20T05:14:57;19.68;86.54
65470;DHT22;52067;50.710;14.492;2023-08-20T05:17:22;19.68;86.64
65470;DHT22;52067;50.710;14.492;2023-08-20T05:19:48;19.85;85.88
65470;DHT22;52067;50.710;14.492;2023-08-20T05:22:13;19.98;85.25
65470;DHT22;52067;50.710;14.492;2023-08-20T05:24:38;20.27;84.62
65470;DHT22;52067;50.710;14.492;2023-08-20T05:27:13;20.38;83.65
65470;DHT22;52067;50.710;14.492;2023-08-20T05:29:42;20.47;83.50
65470;DHT22;52067;50.710;14.492;2023-08-20T05:32:08;20.37;84.20
65470;DHT22;52067;50.710;14.492;2023-08-20T05:34:33;20.34;84.52
65470;DHT22;52067;50.710;14.492;2023-08-20T05:36:59;20.54;84.09
65470;DHT22;52067;50.710;14.492;2023-08-20T05:39:24;20.55;83.75
65470;DHT22;52067;50.710;14.492;2023-08-20T05:41:51;20.40;85.08
65470;DHT22;52067;50.710;14.492;2023-08-20T05:44:16;20.63;83.82
65470;DHT22;52067;50.710;14.492;2023-08-20T05:46:42;20.78;83.59
65470;DHT22;52067;50.710;14.492;2023-08-20T05:49:08;20.67;83.64
65470;DHT22;52067;50.710;14.492;2023-08-20T05:51:33;20.49;84.16
65470;DHT22;52067;50.710;14.492;2023-08-20T05:53:58;20.89;83.60
65470;DHT22;52067;50.710;14.492;2023-08-20T05:56:23;21.12;82.84
65470;DHT22;52067;50.710;14.492;2023-08-20T05:58:49;21.13;82.89
65470;DHT22;52067;50.710;14.492;2023-08-20T06:01:14;21.10;84.00
65470;DHT22;52067;50.710;14.492;2023-08-20T06:03:39;21.30;83.17
65470;DHT22;52067;50.710;14.492;2023-08-20T06:06:04;21.37;82.51
65470;DHT22;52067;50.710;14.492;2023-08-20T06:08:30;21.13;84.09
65470;DHT22;52067;50.710;14.492;2023-08-20T06:10:55;21.37;83.48
65470;DHT22;52067;50.710;14.492;2023-08-20T06:13:20;21.49;83.64
65470;DHT22;52067;50.710;14.492;2023-08-20T06:15:45;21.73;83.18
65470;DHT22;52067;50.710;14.492;2023-08-20T06:18:11;21.60;83.49
65470;DHT22;52067;50.710;14.492;2023-08-20T06:20:36;21.70;82.43
65470;DHT22;52067;50.710;14.492;2023-08-20T06:23:01;21.70;82.53
65470;DHT22;52067;50.710;14.492;2023-08-20T06:25:27;21.71;82.84
65470;DHT22;52067;50.710;14.492;2023-08-20T06:27:52;21.84;82.56
65470;DHT22;52067;50.710;14.492;2023-08-20T06:30:17;21.81;82.57
65470;DHT22;52067;50.710;14.492;2023-08-20T06:32:45;22.05;81.55
65470;DHT22;52067;50.710;14.492;2023-08-20T06:35:11;22.05;82.27
65470;DHT22;52067;50.710;14.492;2023-08-20T06:37:38;22.25;81.10
65470;DHT22;52067;50.710;14.492;2023-08-20T06:40:04;21.99;82.27
65470;DHT22;52067;50.710;14.492;2023-08-20T06:42:29;22.09;82.69
65470;DHT22;52067;50.710;14.492;2023-08-20T06:44:54;22.26;81.99
65470;DHT22;52067;50.710;14.492;2023-08-20T06:47:20;22.42;82.44
65470;DHT22;52067;50.710;14.492;2023-08-20T06:49:45;22.40;82.31
65470;DHT22;52067;50.710;14.492;2023-08-20T06:52:10;22.52;81.20
65470;DHT22;52067;50.710;14.492;2023-08-20T06:54:35;22.40;82.46
65470;DHT22;52067;50.710;14.492;2023-08-20T06:57:01;22.30;83.10
65470;DHT22;52067;50.710;14.492;2023-08-20T06:59:26;22.39;82.20
65470;DHT22;52067;50.710;14.492;2023-08-20T07:01:52;22.61;82.67
65470;DHT22;52067;50.710;14.492;2023-08-20T07:04:17;22.97;79.44
65470;DHT22;52067;50.710;14.492;2023-08-20T07:06:42;23.29;79.75
65470;DHT22;52067;50.710;14.492;2023-08-20T07:09:08;23.59;79.97
65470;DHT22;52067;50.710;14.492;2023-08-20T07:11:34;23.83;77.10
65470;DHT22;52067;50.710;14.492;2023-08-20T07:13:59;24.00;77.10
65470;DHT22;52067;50.710;14.492;2023-08-20T07:16:24;23.94;75.93
65470;DHT22;52067;50.710;14.492;2023-08-20T07:18:49;24.06;76.56
65470;DHT22;52067;50.710;14.492;2023-08-20T07:21:15;24.10;75.45
65470;DHT22;52067;50.710;14.492;2023-08-20T07:23:40;24.17;76.76
65470;DHT22;52067;50.710;14.492;2023-08-20T07:26:06;24.21;75.77
65470;DHT22;52067;50.710;14.492;2023-08-20T07:28:32;24.25;75.26
65470;DHT22;52067;50.710;14.492;2023-08-20T07:31:16;24.40;74.48
65470;DHT22;52067;50.710;14.492;2023-08-20T07:33:41;24.50;75.06
65470;DHT22;52067;50.710;14.492;2023-08-20T07:36:12;24.68;75.32
65470;DHT22;52067;50.710;14.492;2023-08-20T07:38:37;24.58;75.20
65470;DHT22;52067;50.710;14.492;2023-08-20T07:41:06;24.79;74.19
65470;DHT22;52067;50.710;14.492;2023-08-20T07:43:31;24.98;72.45
65470;DHT22;52067;50.710;14.492;2023-08-20T07:45:57;24.98;72.70
65470;DHT22;52067;50.710;14.492;2023-08-20T07:48:22;24.99;72.34
65470;DHT22;52067;50.710;14.492;2023-08-20T07:50:47;25.13;72.34
65470;DHT22;52067;50.710;14.492;2023-08-20T07:53:12;24.62;75.15
65470;DHT22;52067;50.710;14.492;2023-08-20T07:55:38;24.98;73.01
65470;DHT22;52067;50.710;14.492;2023-08-20T07:58:03;25.02;73.54
65470;DHT22;52067;50.710;14.492;2023-08-20T08:00:28;25.02;73.19
65470;DHT22;52067;50.710;14.492;2023-08-20T08:02:54;24.93;72.99
65470;DHT22;52067;50.710;14.492;2023-08-20T08:05:19;24.98;72.81
65470;DHT22;52067;50.710;14.492;2023-08-20T08:07:44;24.79;73.91
65470;DHT22;52067;50.710;14.492;2023-08-20T08:10:10;24.58;74.93
65470;DHT22;52067;50.710;14.492;2023-08-20T08:12:35;24.78;73.49
65470;DHT22;52067;50.710;14.492;2023-08-20T08:15:01;24.99;73.67
65470;DHT22;52067;50.710;14.492;2023-08-20T08:17:26;24.54;76.67
65470;DHT22;52067;50.710;14.492;2023-08-20T08:19:51;24.89;73.73
65470;DHT22;52067;50.710;14.492;2023-08-20T08:22:19;24.98;73.32
65470;DHT22;52067;50.710;14.492;2023-08-20T08:24:44;24.95;73.52
65470;DHT22;52067;50.710;14.492;2023-08-20T08:27:09;25.30;72.91
65470;DHT22;52067;50.710;14.492;2023-08-20T08:29:35;25.40;72.52
65470;DHT22;52067;50.710;14.492;2023-08-20T08:32:00;25.44;72.28
65470;DHT22;52067;50.710;14.492;2023-08-20T08:34:26;25.87;71.67
65470;DHT22;52067;50.710;14.492;2023-08-20T08:36:51;26.02;71.47
65470;DHT22;52067;50.710;14.492;2023-08-20T08:39:16;26.36;69.74
65470;DHT22;52067;50.710;14.492;2023-08-20T08:41:42;26.77;69.25
65470;DHT22;52067;50.710;14.492;2023-08-20T08:44:07;26.82;71.23
65470;DHT22;52067;50.710;14.492;2023-08-20T08:46:34;27.25;68.43
65470;DHT22;52067;50.710;14.492;2023-08-20T08:49:00;27.25;67.17
65470;DHT22;52067;50.710;14.492;2023-08-20T08:51:25;27.17;66.30
65470;DHT22;52067;50.710;14.492;2023-08-20T08:53:51;27.03;67.25
65470;DHT22;52067;50.710;14.492;2023-08-20T08:56:17;27.37;67.11
65470;DHT22;52067;50.710;14.492;2023-08-20T08:58:42;27.48;66.43
65470;DHT22;52067;50.710;14.492;2023-08-20T09:01:07;27.65;66.44
65470;DHT22;52067;50.710;14.492;2023-08-20T09:03:33;27.82;64.38
65470;DHT22;52067;50.710;14.492;2023-08-20T09:05:59;27.34;67.63
65470;DHT22;52067;50.710;14.492;2023-08-20T09:08:31;27.86;65.25
65470;DHT22;52067;50.710;14.492;2023-08-20T09:10:57;28.06;65.70
65470;DHT22;52067;50.710;14.492;2023-08-20T09:13:33;27.82;66.19
65470;DHT22;52067;50.710;14.492;2023-08-20T09:15:59;27.70;66.82
65470;DHT22;52067;50.710;14.492;2023-08-20T09:18:25;27.86;66.91
65470;DHT22;52067;50.710;14.492;2023-08-20T09:20:50;28.27;65.36
65470;DHT22;52067;50.710;14.492;2023-08-20T09:23:16;28.45;62.90
65470;DHT22;52067;50.710;14.492;2023-08-20T09:25:41;28.27;65.02
65470;DHT22;52067;50.710;14.492;2023-08-20T09:28:07;28.34;66.67
65470;DHT22;52067;50.710;14.492;2023-08-20T09:30:33;28.85;66.56
65470;DHT22;52067;50.710;14.492;2023-08-20T09:33:17;29.20;63.48
65470;DHT22;52067;50.710;14.492;2023-08-20T09:35:49;29.20;62.79
65470;DHT22;52067;50.710;14.492;2023-08-20T09:38:15;29.23;63.37
65470;DHT22;52067;50.710;14.492;2023-08-20T09:40:43;29.18;63.33
65470;DHT22;52067;50.710;14.492;2023-08-20T09:43:08;29.27;62.29
65470;DHT22;52067;50.710;14.492;2023-08-20T09:45:35;28.98;61.47
65470;DHT22;52067;50.710;14.492;2023-08-20T09:48:01;29.23;61.63
65470;DHT22;52067;50.710;14.492;2023-08-20T09:50:30;29.20;62.90
65470;DHT22;52067;50.710;14.492;2023-08-20T09:53:03;29.73;62.61
65470;DHT22;52067;50.710;14.492;2023-08-20T09:55:32;29.66;61.81
65470;DHT22;52067;50.710;14.492;2023-08-20T09:57:59;29.73;59.00
65470;DHT22;52067;50.710;14.492;2023-08-20T10:00:25;29.78;58.32
65470;DHT22;52067;50.710;14.492;2023-08-20T10:02:51;30.04;61.33
65470;DHT22;52067;50.710;14.492;2023-08-20T10:05:17;30.33;58.14
65470;DHT22;52067;50.710;14.492;2023-08-20T10:07:42;29.54;60.64
65470;DHT22;52067;50.710;14.492;2023-08-20T10:10:08;30.22;59.42
65470;DHT22;52067;50.710;14.492;2023-08-20T10:12:37;30.60;57.04
65470;DHT22;52067;50.710;14.492;2023-08-20T10:15:04;31.51;53.61
65470;DHT22;52067;50.710;14.492;2023-08-20T10:17:30;30.69;55.46
65470;DHT22;52067;50.710;14.492;2023-08-20T10:19:57;30.42;58.13
65470;DHT22;52067;50.710;14.492;2023-08-20T10:22:22;31.12;55.50
65470;DHT22;52067;50.710;14.492;2023-08-20T10:24:51;32.70;51.82
65470;DHT22;52067;50.710;14.492;2023-08-20T10:27:24;33.27;49.72
65470;DHT22;52067;50.710;14.492;2023-08-20T10:29:50;34.96;46.42
65470;DHT22;52067;50.710;14.492;2023-08-20T10:32:17;36.11;43.33
65470;DHT22;52067;50.710;14.492;2023-08-20T10:34:43;35.20;45.43
65470;DHT22;52067;50.710;14.492;2023-08-20T10:37:09;33.77;50.80
65470;DHT22;52067;50.710;14.492;2023-08-20T10:39:34;34.12;49.69
65470;DHT22;52067;50.710;14.492;2023-08-20T10:42:09;33.63;50.57
65470;DHT22;52067;50.710;14.492;2023-08-20T10:47:21;35.06;48.43
65470;DHT22;52067;50.710;14.492;2023-08-20T10:49:50;34.17;48.21
65470;DHT22;52067;50.710;14.492;2023-08-20T10:52:17;33.08;51.87
65470;DHT22;52067;50.710;14.492;2023-08-20T10:54:42;32.82;55.34
65470;DHT22;52067;50.710;14.492;2023-08-20T10:57:08;33.49;51.90
65470;DHT22;52067;50.710;14.492;2023-08-20T10:59:33;34.21;49.32
65470;DHT22;52067;50.710;14.492;2023-08-20T11:01:59;36.46;46.00
65470;DHT22;52067;50.710;14.492;2023-08-20T11:04:29;37.19;43.85
65470;DHT22;52067;50.710;14.492;2023-08-20T11:06:57;35.73;45.62
65470;DHT22;52067;50.710;14.492;2023-08-20T11:09:23;34.05;51.60
65470;DHT22;52067;50.710;14.492;2023-08-20T11:11:50;36.60;44.48
65470;DHT22;52067;50.710;14.492;2023-08-20T11:14:15;37.22;44.09
65470;DHT22;52067;50.710;14.492;2023-08-20T11:16:41;35.43;46.58
65470;DHT22;52067;50.710;14.492;2023-08-20T11:19:06;37.65;41.57
65470;DHT22;52067;50.710;14.492;2023-08-20T11:21:35;34.78;48.75
65470;DHT22;52067;50.710;14.492;2023-08-20T11:24:01;36.59;45.21
65470;DHT22;52067;50.710;14.492;2023-08-20T11:26:26;38.13;40.73
65470;DHT22;52067;50.710;14.492;2023-08-20T11:28:52;37.52;41.52
65470;DHT22;52067;50.710;14.492;2023-08-20T11:31:17;37.48;41.26
65470;DHT22;52067;50.710;14.492;2023-08-20T11:33:42;38.23;39.47
65470;DHT22;52067;50.710;14.492;2023-08-20T11:36:07;38.65;39.67
65470;DHT22;52067;50.710;14.492;2023-08-20T11:38:33;38.67;40.29
65470;DHT22;52067;50.710;14.492;2023-08-20T11:40:58;39.76;36.97
65470;DHT22;52067;50.710;14.492;2023-08-20T11:43:29;37.89;39.46
65470;DHT22;52067;50.710;14.492;2023-08-20T11:45:55;37.56;40.91
65470;DHT22;52067;50.710;14.492;2023-08-20T11:48:21;36.37;42.18
65470;DHT22;52067;50.710;14.492;2023-08-20T11:50:46;34.99;45.88
65470;DHT22;52067;50.710;14.492;2023-08-20T11:53:12;36.01;43.23
65470;DHT22;52067;50.710;14.492;2023-08-20T11:55:38;34.27;49.13
65470;DHT22;52067;50.710;14.492;2023-08-20T11:58:03;33.18;48.85
65470;DHT22;52067;50.710;14.492;2023-08-20T12:00:29;34.42;46.01
65470;DHT22;52067;50.710;14.492;2023-08-20T12:02:55;34.75;46.91
65470;DHT22;52067;50.710;14.492;2023-08-20T12:05:30;34.18;48.72
65470;DHT22;52067;50.710;14.492;2023-08-20T12:07:59;35.91;48.59
65470;DHT22;52067;50.710;14.492;2023-08-20T12:10:25;35.13;50.76
65470;DHT22;52067;50.710;14.492;2023-08-20T12:12:51;35.66;47.35
65470;DHT22;52067;50.710;14.492;2023-08-20T12:15:17;33.35;52.42
65470;DHT22;52067;50.710;14.492;2023-08-20T12:17:43;33.36;52.63
65470;DHT22;52067;50.710;14.492;2023-08-20T12:20:09;35.21;49.49
65470;DHT22;52067;50.710;14.492;2023-08-20T12:22:40;37.08;44.83
65470;DHT22;52067;50.710;14.492;2023-08-20T12:25:06;38.54;43.12
65470;DHT22;52067;50.710;14.492;2023-08-20T12:27:31;38.31;43.06
65470;DHT22;52067;50.710;14.492;2023-08-20T12:29:57;38.30;42.64
65470;DHT22;52067;50.710;14.492;2023-08-20T12:32:22;37.86;42.53
65470;DHT22;52067;50.710;14.492;2023-08-20T12:34:47;36.50;45.01
65470;DHT22;52067;50.710;14.492;2023-08-20T12:37:12;38.20;40.72
65470;DHT22;52067;50.710;14.492;2023-08-20T12:39:38;39.08;39.28
65470;DHT22;52067;50.710;14.492;2023-08-20T12:42:03;37.24;44.38
65470;DHT22;52067;50.710;14.492;2023-08-20T12:44:28;38.51;39.33
65470;DHT22;52067;50.710;14.492;2023-08-20T12:46:54;38.88;39.01
65470;DHT22;52067;50.710;14.492;2023-08-20T12:49:19;38.81;38.33
65470;DHT22;52067;50.710;14.492;2023-08-20T12:51:44;38.19;40.25
65470;DHT22;52067;50.710;14.492;2023-08-20T12:54:09;37.37;41.29
65470;DHT22;52067;50.710;14.492;2023-08-20T12:56:35;37.45;41.25
65470;DHT22;52067;50.710;14.492;2023-08-20T12:59:00;36.39;43.83
65470;DHT22;52067;50.710;14.492;2023-08-20T13:01:25;38.19;41.54
65470;DHT22;52067;50.710;14.492;2023-08-20T13:03:51;38.27;41.91
65470;DHT22;52067;50.710;14.492;2023-08-20T13:06:16;37.02;43.42
65470;DHT22;52067;50.710;14.492;2023-08-20T13:08:42;36.90;42.08
65470;DHT22;52067;50.710;14.492;2023-08-20T13:11:07;37.00;42.73
65470;DHT22;52067;50.710;14.492;2023-08-20T13:13:34;38.44;37.43
65470;DHT22;52067;50.710;14.492;2023-08-20T13:16:00;39.86;35.72
65470;DHT22;52067;50.710;14.492;2023-08-20T13:18:26;36.69;40.00
65470;DHT22;52067;50.710;14.492;2023-08-20T13:20:52;37.24;40.43
65470;DHT22;52067;50.710;14.492;2023-08-20T13:23:17;39.09;36.95
65470;DHT22;52067;50.710;14.492;2023-08-20T13:25:42;37.93;38.90
65470;DHT22;52067;50.710;14.492;2023-08-20T13:28:08;37.92;38.41
65470;DHT22;52067;50.710;14.492;2023-08-20T13:30:33;38.61;37.35
65470;DHT22;52067;50.710;14.492;2023-08-20T13:32:59;38.95;37.41
65470;DHT22;52067;50.710;14.492;2023-08-20T13:35:24;38.06;37.87
65470;DHT22;52067;50.710;14.492;2023-08-20T13:37:49;37.96;36.55
65470;DHT22;52067;50.710;14.492;2023-08-20T13:40:15;36.64;41.23
65470;DHT22;52067;50.710;14.492;2023-08-20T13:42:40;35.98;40.37
65470;DHT22;52067;50.710;14.492;2023-08-20T13:45:05;35.16;42.91
65470;DHT22;52067;50.710;14.492;2023-08-20T13:47:31;35.16;42.16
65470;DHT22;52067;50.710;14.492;2023-08-20T13:49:56;36.94;40.26
65470;DHT22;52067;50.710;14.492;2023-08-20T13:52:22;37.04;40.71
65470;DHT22;52067;50.710;14.492;2023-08-20T13:54:47;36.22;41.60
65470;DHT22;52067;50.710;14.492;2023-08-20T13:57:12;35.29;44.06
65470;DHT22;52067;50.710;14.492;2023-08-20T13:59:38;34.73;44.91
65470;DHT22;52067;50.710;14.492;2023-08-20T14:02:03;34.41;45.86
65470;DHT22;52067;50.710;14.492;2023-08-20T14:04:29;33.70;49.05
65470;DHT22;52067;50.710;14.492;2023-08-20T14:06:54;33.81;49.34
65470;DHT22;52067;50.710;14.492;2023-08-20T14:09:19;34.82;46.26
65470;DHT22;52067;50.710;14.492;2023-08-20T14:11:48;36.42;43.46
65470;DHT22;52067;50.710;14.492;2023-08-20T14:14:13;37.87;42.08
65470;DHT22;52067;50.710;14.492;2023-08-20T14:16:38;37.90;40.67
65470;DHT22;52067;50.710;14.492;2023-08-20T14:19:04;37.59;41.10
65470;DHT22;52067;50.710;14.492;2023-08-20T14:21:29;36.49;44.80
65470;DHT22;52067;50.710;14.492;2023-08-20T14:23:54;37.97;42.95
65470;DHT22;52067;50.710;14.492;2023-08-20T14:26:23;37.66;43.43
65470;DHT22;52067;50.710;14.492;2023-08-20T14:28:48;39.56;38.27
65470;DHT22;52067;50.710;14.492;2023-08-20T14:31:13;39.87;37.84
65470;DHT22;52067;50.710;14.492;2023-08-20T14:33:39;38.37;39.64
65470;DHT22;52067;50.710;14.492;2023-08-20T14:36:04;39.20;38.45
65470;DHT22;52067;50.710;14.492;2023-08-20T14:38:29;40.89;34.59
65470;DHT22;52067;50.710;14.492;2023-08-20T14:40:58;39.01;36.70
65470;DHT22;52067;50.710;14.492;2023-08-20T14:43:24;38.57;38.33
65470;DHT22;52067;50.710;14.492;2023-08-20T14:45:50;36.36;42.83
65470;DHT22;52067;50.710;14.492;2023-08-20T14:48:15;36.64;42.31
65470;DHT22;52067;50.710;14.492;2023-08-20T14:50:40;36.09;42.26
65470;DHT22;52067;50.710;14.492;2023-08-20T14:53:05;35.86;41.47
65470;DHT22;52067;50.710;14.492;2023-08-20T14:55:31;36.13;41.13
65470;DHT22;52067;50.710;14.492;2023-08-20T14:57:56;35.17;44.41
65470;DHT22;52067;50.710;14.492;2023-08-20T15:00:21;34.52;44.52
65470;DHT22;52067;50.710;14.492;2023-08-20T15:02:47;34.27;47.17
65470;DHT22;52067;50.710;14.492;2023-08-20T15:05:13;34.01;46.92
65470;DHT22;52067;50.710;14.492;2023-08-20T15:07:38;33.30;47.40
65470;DHT22;52067;50.710;14.492;2023-08-20T15:10:04;32.91;49.49
65470;DHT22;52067;50.710;14.492;2023-08-20T15:12:36;32.78;50.61